Time;durP1;ratioP1;P1;durP2;ratioP2;P2;SDS_P1;SDS_P2;PMS_P1;PMS_P2;Temp;Humidity;BMP_temperature;BMP_pressure;BME280_temperature;BME280_humidity;BME280_pressure;Samples;Min_cycle;Max_cycle;Signal;HPM_P1;HPM_P2
2023/12/01 00:01:46;;;;;;;23.92;18.77;;;;;;;;;;5588971;31;35008;-72
2023/12/01 00:04:49;;;;;;;24.63;20.10;;;;;;;;;;5589357;31;34963;-71
2023/12/01 00:07:52;;;;;;;27.55;20.75;;;;;;;;;;5588927;31;34495;-72
2023/12/01 00:10:55;;;;;;;25.92;19.65;;;;;;;;;;5588932;31;34584;-71
2023/12/01 00:13:57;;;;;;;26.12;19.87;;;;;;;;;;5588017;31;34981;-71
2023/12/01 00:17:00;;;;;;;25.02;20.08;;;;;;;;;;5589052;31;35202;-72
2023/12/01 00:20:03;;;;;;;24.33;19.55;;;;;;;;;;5588773;31;34673;-72
2023/12/01 00:23:06;;;;;;;27.70;22.23;;;;;;;;;;5589097;31;34951;-72
2023/12/01 00:26:09;;;;;;;25.75;20.37;;;;;;;;;;5589204;31;34439;-72
2023/12/01 00:29:12;;;;;;;24.83;19.52;;;;;;;;;;5588885;31;34476;-72
2023/12/01 00:32:15;;;;;;;28.17;21.20;;;;;;;;;;5589133;31;34490;-72
2023/12/01 00:35:17;;;;;;;28.42;22.23;;;;;;;;;;5588864;31;34400;-72
2023/12/01 00:38:20;;;;;;;29.73;22.42;;;;;;;;;;5588900;31;35107;-72
2023/12/01 00:41:22;;;;;;;29.80;22.13;;;;;;;;;;5588696;31;34403;-73
2023/12/01 00:44:25;;;;;;;28.98;22.17;;;;;;;;;;5588695;31;35027;-72
2023/12/01 00:47:28;;;;;;;28.98;22.70;;;;;;;;;;5588550;31;34635;-72
2023/12/01 00:50:30;;;;;;;28.08;21.90;;;;;;;;;;5588754;31;34479;-72
2023/12/01 00:53:33;;;;;;;33.95;24.25;;;;;;;;;;5588937;31;34534;-72
2023/12/01 00:56:35;;;;;;;34.97;24.87;;;;;;;;;;5588699;31;34409;-72
2023/12/01 00:59:38;;;;;;;31.33;23.55;;;;;;;;;;5588627;31;34317;-72
2023/12/01 01:02:40;;;;;;;41.37;28.45;;;;;;;;;;5588573;31;35065;-71
2023/12/01 01:05:43;;;;;;;39.63;26.98;;;;;;;;;;5588743;31;35106;-71
2023/12/01 01:08:46;;;;;;;40.25;27.33;;;;;;;;;;5587738;31;34175;-72
2023/12/01 01:11:49;;;;;;;39.85;28.38;;;;;;;;;;5588334;31;35144;-71
2023/12/01 01:14:51;;;;;;;45.58;30.67;;;;;;;;;;5587802;31;34966;-72
2023/12/01 01:17:54;;;;;;;42.97;30.70;;;;;;;;;;5588203;31;35354;-72
2023/12/01 01:20:56;;;;;;;40.08;28.33;;;;;;;;;;5588182;31;34405;-71
2023/12/01 01:23:59;;;;;;;40.42;29.02;;;;;;;;;;5588163;31;34231;-72
2023/12/01 01:27:02;;;;;;;38.42;28.87;;;;;;;;;;5588102;31;34425;-71
2023/12/01 01:30:05;;;;;;;43.80;29.58;;;;;;;;;;5588150;31;34961;-72
2023/12/01 01:33:08;;;;;;;44.58;30.95;;;;;;;;;;5588371;31;34396;-72
2023/12/01 01:36:10;;;;;;;43.33;31.05;;;;;;;;;;5588022;31;34390;-72
2023/12/01 01:39:13;;;;;;;41.47;29.37;;;;;;;;;;5587136;31;34413;-71
2023/12/01 01:42:16;;;;;;;44.78;30.02;;;;;;;;;;5588023;31;34249;-72
2023/12/01 01:45:18;;;;;;;45.35;31.67;;;;;;;;;;5587995;31;34990;-72
2023/12/01 01:48:21;;;;;;;43.70;31.27;;;;;;;;;;5587705;31;34980;-72
2023/12/01 01:51:23;;;;;;;43.28;30.77;;;;;;;;;;5587779;31;35069;-72
2023/12/01 01:54:27;;;;;;;49.50;32.08;;;;;;;;;;5587711;31;34401;-72
2023/12/01 01:57:31;;;;;;;46.20;31.40;;;;;;;;;;5587572;31;34407;-72
2023/12/01 02:00:34;;;;;;;40.22;29.25;;;;;;;;;;5587473;31;34407;-72
2023/12/01 02:03:37;;;;;;;47.50;31.58;;;;;;;;;;5587609;31;34593;-71
2023/12/01 02:06:40;;;;;;;45.50;32.03;;;;;;;;;;5587156;31;34441;-72
2023/12/01 02:09:43;;;;;;;54.55;34.10;;;;;;;;;;5590193;31;34612;-72
2023/12/01 02:12:46;;;;;;;48.13;31.62;;;;;;;;;;5590005;31;35116;-72
2023/12/01 02:15:48;;;;;;;42.05;30.88;;;;;;;;;;5589067;31;34424;-72
2023/12/01 02:18:54;;;;;;;46.80;31.10;;;;;;;;;;5589874;31;35357;-71
2023/12/01 02:21:57;;;;;;;37.00;27.52;;;;;;;;;;5589789;31;34217;-72
2023/12/01 02:25:00;;;;;;;41.30;29.05;;;;;;;;;;5589886;31;34395;-72
2023/12/01 02:28:02;;;;;;;41.50;29.60;;;;;;;;;;5589724;31;34306;-72
2023/12/01 02:31:05;;;;;;;40.22;28.80;;;;;;;;;;5589843;31;34914;-72
2023/12/01 02:34:08;;;;;;;41.67;29.90;;;;;;;;;;5589039;31;35087;-72
2023/12/01 02:37:11;;;;;;;41.58;29.27;;;;;;;;;;5589758;31;35159;-72
2023/12/01 02:40:16;;;;;;;39.22;27.50;;;;;;;;;;5589614;31;35136;-72
2023/12/01 02:43:20;;;;;;;42.85;29.77;;;;;;;;;;5589697;31;34608;-72
2023/12/01 02:46:24;;;;;;;49.75;31.35;;;;;;;;;;5589982;31;34395;-72
2023/12/01 02:49:27;;;;;;;44.70;29.90;;;;;;;;;;5589437;31;34643;-73
2023/12/01 02:52:29;;;;;;;44.97;31.00;;;;;;;;;;5589536;31;34183;-72
2023/12/01 02:55:32;;;;;;;46.75;30.17;;;;;;;;;;5588839;31;34471;-73
2023/12/01 02:58:34;;;;;;;47.90;31.58;;;;;;;;;;5589499;31;35195;-72
2023/12/01 03:01:37;;;;;;;47.88;31.48;;;;;;;;;;5589836;31;35082;-73
2023/12/01 03:04:40;;;;;;;46.85;30.98;;;;;;;;;;5589466;31;34313;-72
2023/12/01 03:07:43;;;;;;;49.03;32.08;;;;;;;;;;5589332;31;34711;-73
2023/12/01 03:10:46;;;;;;;47.38;32.20;;;;;;;;;;5589328;31;34460;-72
2023/12/01 03:13:48;;;;;;;51.08;31.77;;;;;;;;;;5589128;31;33935;-72
2023/12/01 03:16:51;;;;;;;51.15;32.25;;;;;;;;;;5589644;31;34337;-73
2023/12/01 03:19:53;;;;;;;57.67;35.03;;;;;;;;;;5589096;31;35394;-73
2023/12/01 03:22:56;;;;;;;51.72;32.03;;;;;;;;;;5589467;31;35030;-72
2023/12/01 03:25:59;;;;;;;50.60;32.72;;;;;;;;;;5589221;31;34566;-73
2023/12/01 03:29:01;;;;;;;70.32;35.13;;;;;;;;;;5589082;31;34358;-73
2023/12/01 03:32:07;;;;;;;58.70;34.30;;;;;;;;;;5588412;31;34402;-73
2023/12/01 03:35:10;;;;;;;53.92;32.75;;;;;;;;;;5589473;31;34288;-73
2023/12/01 03:38:13;;;;;;;54.38;33.08;;;;;;;;;;5589127;31;35025;-73
2023/12/01 03:41:15;;;;;;;59.08;33.90;;;;;;;;;;5589023;31;34467;-73
2023/12/01 03:44:18;;;;;;;69.57;37.00;;;;;;;;;;5588370;31;35009;-73
2023/12/01 03:47:21;;;;;;;59.95;35.45;;;;;;;;;;5589078;31;34230;-73
2023/12/01 03:50:23;;;;;;;55.33;32.92;;;;;;;;;;5588864;31;34523;-73
2023/12/01 03:53:26;;;;;;;58.38;34.67;;;;;;;;;;5589002;31;35064;-73
2023/12/01 03:56:29;;;;;;;61.42;35.72;;;;;;;;;;5589048;31;35175;-73
2023/12/01 03:59:31;;;;;;;59.72;34.72;;;;;;;;;;5589005;31;34575;-73
2023/12/01 04:02:44;;;;;;;62.00;36.10;;;;;;;;;;5588869;31;34495;-73
2023/12/01 04:05:47;;;;;;;62.45;35.15;;;;;;;;;;5589262;31;34576;-73
2023/12/01 04:08:53;;;;;;;72.60;37.30;;;;;;;;;;5588902;31;34435;-73
2023/12/01 04:11:56;;;;;;;71.22;37.70;;;;;;;;;;5588744;31;34460;-72
2023/12/01 04:14:59;;;;;;;71.00;35.58;;;;;;;;;;5588403;31;35114;-72
2023/12/01 04:18:06;;;;;;;65.30;34.80;;;;;;;;;;5588906;31;34611;-73
2023/12/01 04:21:09;;;;;;;63.30;34.20;;;;;;;;;;5588597;31;34802;-73
2023/12/01 04:24:12;;;;;;;70.90;36.45;;;;;;;;;;5588850;31;34164;-72
2023/12/01 04:27:14;;;;;;;64.62;34.72;;;;;;;;;;5588899;31;34959;-73
2023/12/01 04:30:17;;;;;;;64.18;33.53;;;;;;;;;;5587398;31;34445;-73
2023/12/01 04:33:19;;;;;;;68.68;34.30;;;;;;;;;;5588694;31;34562;-73
2023/12/01 04:36:22;;;;;;;65.45;33.35;;;;;;;;;;5588315;31;34516;-73
2023/12/01 04:39:25;;;;;;;51.37;29.80;;;;;;;;;;5589044;31;34495;-72
2023/12/01 04:42:27;;;;;;;65.18;31.90;;;;;;;;;;5588947;31;34415;-72
2023/12/01 04:45:33;;;;;;;56.88;29.95;;;;;;;;;;5588600;31;34113;-73
2023/12/01 04:48:35;;;;;;;60.58;31.50;;;;;;;;;;5588560;31;34549;-73
2023/12/01 04:51:38;;;;;;;57.53;30.70;;;;;;;;;;5587589;31;34705;-73
2023/12/01 04:54:41;;;;;;;58.80;30.73;;;;;;;;;;5588758;31;34287;-73
2023/12/01 04:57:45;;;;;;;68.35;32.70;;;;;;;;;;5588599;31;34354;-73
2023/12/01 05:00:48;;;;;;;73.85;36.75;;;;;;;;;;5588762;31;34442;-73
2023/12/01 05:03:50;;;;;;;71.35;35.20;;;;;;;;;;5588497;31;34462;-74
2023/12/01 05:06:56;;;;;;;73.57;34.90;;;;;;;;;;5588309;31;34484;-74
2023/12/01 05:09:58;;;;;;;75.70;35.25;;;;;;;;;;5588283;31;34421;-74
2023/12/01 05:13:02;;;;;;;68.57;34.45;;;;;;;;;;5588135;31;34527;-74
2023/12/01 05:16:05;;;;;;;76.20;35.88;;;;;;;;;;5588267;31;35093;-73
2023/12/01 05:19:08;;;;;;;75.87;36.05;;;;;;;;;;5588276;31;35018;-73
2023/12/01 05:22:11;;;;;;;87.82;38.75;;;;;;;;;;5588418;31;34796;-73
2023/12/01 05:25:14;;;;;;;95.55;39.05;;;;;;;;;;5588045;31;35123;-73
2023/12/01 05:28:17;;;;;;;92.15;40.35;;;;;;;;;;5588016;31;35079;-73
2023/12/01 05:31:20;;;;;;;89.18;41.45;;;;;;;;;;5588022;31;34481;-73
2023/12/01 05:34:23;;;;;;;81.05;39.00;;;;;;;;;;5588319;31;34690;-73
2023/12/01 05:37:25;;;;;;;82.10;39.00;;;;;;;;;;5587995;31;35021;-73
2023/12/01 05:40:29;;;;;;;86.53;41.53;;;;;;;;;;5587893;31;34505;-73
2023/12/01 05:43:32;;;;;;;95.82;41.40;;;;;;;;;;5586968;31;35010;-74
2023/12/01 05:46:35;;;;;;;62.65;33.17;;;;;;;;;;5587838;31;35164;-74
2023/12/01 05:49:37;;;;;;;67.37;34.00;;;;;;;;;;5587120;31;34171;-74
2023/12/01 05:52:41;;;;;;;49.45;28.75;;;;;;;;;;5588021;31;34624;-74
2023/12/01 05:55:44;;;;;;;47.85;28.27;;;;;;;;;;5587825;31;33105;-73
2023/12/01 05:58:46;;;;;;;55.88;30.70;;;;;;;;;;5587129;31;34423;-74
2023/12/01 06:01:49;;;;;;;50.63;28.38;;;;;;;;;;5587852;31;34283;-73
2023/12/01 06:04:52;;;;;;;57.50;29.73;;;;;;;;;;5587513;31;34909;-73
2023/12/01 06:07:57;;;;;;;54.47;30.60;;;;;;;;;;5586709;31;34634;-74
2023/12/01 06:10:59;;;;;;;42.17;27.52;;;;;;;;;;5587451;31;34375;-74
2023/12/01 06:14:02;;;;;;;47.20;29.25;;;;;;;;;;5587023;31;34262;-74
2023/12/01 06:17:07;;;;;;;52.45;29.80;;;;;;;;;;5586577;31;34434;-75
2023/12/01 06:20:19;;;;;;;45.92;28.48;;;;;;;;;;5587174;31;34539;-74
2023/12/01 06:23:22;;;;;;;47.33;28.38;;;;;;;;;;5586911;31;34356;-74
2023/12/01 06:26:24;;;;;;;45.25;28.45;;;;;;;;;;5587067;31;35144;-73
2023/12/01 06:29:28;;;;;;;54.08;30.40;;;;;;;;;;5586875;31;34361;-74
2023/12/01 06:32:30;;;;;;;46.53;30.08;;;;;;;;;;5585704;31;34352;-74
2023/12/01 06:35:33;;;;;;;50.00;30.55;;;;;;;;;;5587187;31;34310;-74
2023/12/01 06:38:35;;;;;;;47.75;29.60;;;;;;;;;;5586778;31;35068;-75
2023/12/01 06:41:38;;;;;;;49.78;29.50;;;;;;;;;;5586581;31;34984;-75
2023/12/01 06:44:40;;;;;;;48.15;28.90;;;;;;;;;;5586529;31;34507;-74
2023/12/01 06:47:46;;;;;;;50.28;29.58;;;;;;;;;;5586596;31;34280;-75
2023/12/01 06:50:49;;;;;;;49.25;30.65;;;;;;;;;;5584750;31;34456;-73
2023/12/01 06:53:52;;;;;;;51.95;30.95;;;;;;;;;;5587499;31;35320;-74
2023/12/01 06:56:55;;;;;;;52.60;30.67;;;;;;;;;;5589161;31;34321;-75
2023/12/01 06:59:57;;;;;;;57.83;30.88;;;;;;;;;;5588422;31;34564;-74
2023/12/01 07:03:01;;;;;;;47.35;29.15;;;;;;;;;;5588772;31;34225;-75
2023/12/01 07:06:04;;;;;;;45.00;27.58;;;;;;;;;;5588470;31;34507;-75
2023/12/01 07:09:07;;;;;;;42.40;27.92;;;;;;;;;;5589186;31;34620;-75
2023/12/01 07:12:10;;;;;;;43.25;27.80;;;;;;;;;;5588174;31;34689;-75
2023/12/01 07:15:12;;;;;;;43.20;27.67;;;;;;;;;;5588588;31;34992;-74
2023/12/01 07:18:15;;;;;;;48.70;29.85;;;;;;;;;;5589686;31;35125;-74
2023/12/01 07:21:17;;;;;;;46.70;29.95;;;;;;;;;;5589180;31;34348;-75
2023/12/01 07:24:20;;;;;;;45.17;29.00;;;;;;;;;;5588877;31;34416;-74
2023/12/01 07:27:25;;;;;;;47.03;30.77;;;;;;;;;;5589495;31;35087;-75
2023/12/01 07:30:28;;;;;;;42.15;27.92;;;;;;;;;;5589426;31;34454;-74
2023/12/01 07:33:30;;;;;;;44.05;28.87;;;;;;;;;;5589065;31;34473;-74
2023/12/01 07:36:33;;;;;;;51.47;31.85;;;;;;;;;;5588750;31;34394;-73
2023/12/01 07:39:42;;;;;;;51.65;32.13;;;;;;;;;;5589133;31;34612;-74
2023/12/01 07:42:46;;;;;;;51.80;32.17;;;;;;;;;;5589017;31;35093;-74
2023/12/01 07:45:48;;;;;;;47.88;29.55;;;;;;;;;;5588991;31;34408;-75
2023/12/01 07:48:51;;;;;;;50.50;30.92;;;;;;;;;;5588328;31;34448;-75
2023/12/01 07:51:55;;;;;;;48.17;29.65;;;;;;;;;;5588669;31;34367;-74
2023/12/01 07:54:59;;;;;;;48.80;30.30;;;;;;;;;;5588821;31;34730;-74
2023/12/01 07:58:02;;;;;;;47.25;29.85;;;;;;;;;;5588446;31;34935;-74
2023/12/01 08:01:05;;;;;;;45.20;28.15;;;;;;;;;;5588939;31;34479;-73
2023/12/01 08:04:08;;;;;;;46.00;29.12;;;;;;;;;;5587869;31;35050;-73
2023/12/01 08:07:10;;;;;;;48.90;30.58;;;;;;;;;;5588210;31;35172;-74
2023/12/01 08:10:15;;;;;;;47.85;30.40;;;;;;;;;;5588895;31;34369;-74
2023/12/01 08:13:21;;;;;;;48.53;30.12;;;;;;;;;;5588670;31;34313;-74
2023/12/01 08:16:23;;;;;;;40.72;27.60;;;;;;;;;;5587981;31;34491;-73
2023/12/01 08:19:27;;;;;;;41.75;28.05;;;;;;;;;;5588742;31;34348;-74
2023/12/01 08:22:30;;;;;;;39.35;26.60;;;;;;;;;;5588721;31;34029;-73
2023/12/01 08:25:33;;;;;;;42.65;27.13;;;;;;;;;;5588626;31;35314;-73
2023/12/01 08:28:36;;;;;;;40.53;28.20;;;;;;;;;;5588583;31;35017;-71
2023/12/01 08:31:39;;;;;;;44.40;28.02;;;;;;;;;;5588835;31;34446;-72
2023/12/01 08:34:42;;;;;;;43.80;28.38;;;;;;;;;;5588487;31;34358;-72
2023/12/01 08:37:45;;;;;;;46.90;28.87;;;;;;;;;;5588551;31;34368;-72
2023/12/01 08:40:48;;;;;;;44.08;28.55;;;;;;;;;;5588391;31;34584;-73
2023/12/01 08:43:56;;;;;;;43.38;28.90;;;;;;;;;;5588651;31;34344;-72
2023/12/01 08:46:58;;;;;;;39.95;27.42;;;;;;;;;;5588623;31;34379;-72
2023/12/01 08:50:01;;;;;;;49.38;30.65;;;;;;;;;;5588836;31;34351;-73
2023/12/01 08:53:12;;;;;;;49.75;31.10;;;;;;;;;;5588233;31;34268;-72
2023/12/01 08:56:14;;;;;;;48.33;30.27;;;;;;;;;;5587645;31;34627;-72
2023/12/01 08:59:18;;;;;;;49.85;28.87;;;;;;;;;;5588640;31;35092;-71
2023/12/01 09:02:20;;;;;;;42.70;28.00;;;;;;;;;;5587406;31;35150;-72
2023/12/01 09:05:24;;;;;;;44.45;28.27;;;;;;;;;;5588616;31;34459;-72
2023/12/01 09:08:26;;;;;;;45.35;29.02;;;;;;;;;;5588228;31;34318;-71
2023/12/01 09:11:29;;;;;;;41.22;26.65;;;;;;;;;;5588141;31;35073;-71
2023/12/01 09:14:31;;;;;;;41.75;26.35;;;;;;;;;;5588236;31;34667;-71
2023/12/01 09:17:34;;;;;;;46.25;28.42;;;;;;;;;;5587687;31;35074;-71
2023/12/01 09:20:37;;;;;;;41.95;26.00;;;;;;;;;;5588417;31;34364;-71
2023/12/01 09:23:40;;;;;;;42.00;24.95;;;;;;;;;;5587443;31;34381;-71
2023/12/01 09:26:43;;;;;;;44.00;27.15;;;;;;;;;;5588114;31;34400;-72
2023/12/01 09:29:48;;;;;;;39.08;24.92;;;;;;;;;;5587991;31;34274;-71
2023/12/01 09:32:50;;;;;;;35.35;23.77;;;;;;;;;;5588105;31;32264;-71
2023/12/01 09:35:53;;;;;;;42.67;25.75;;;;;;;;;;5587990;31;35121;-72
2023/12/01 09:39:01;;;;;;;37.40;24.77;;;;;;;;;;5575005;31;34942;-72
2023/12/01 09:42:08;;;;;;;44.75;26.27;;;;;;;;;;5588007;31;35007;-72
2023/12/01 09:45:15;;;;;;;39.22;23.60;;;;;;;;;;5588076;31;35084;-71
2023/12/01 09:48:18;;;;;;;37.85;22.35;;;;;;;;;;5588265;31;34476;-71
2023/12/01 09:51:21;;;;;;;37.25;23.30;;;;;;;;;;5587894;31;35072;-72
2023/12/01 09:54:24;;;;;;;40.05;23.20;;;;;;;;;;5587057;31;34176;-72
2023/12/01 09:57:29;;;;;;;34.13;22.42;;;;;;;;;;5587631;31;34417;-72
2023/12/01 10:00:32;;;;;;;41.58;24.85;;;;;;;;;;5587690;31;35095;-72
2023/12/01 10:03:34;;;;;;;39.42;23.67;;;;;;;;;;5587603;31;34420;-72
2023/12/01 10:06:40;;;;;;;32.15;21.85;;;;;;;;;;5587450;31;34292;-72
2023/12/01 10:09:43;;;;;;;31.87;21.60;;;;;;;;;;5587497;31;35154;-71
2023/12/01 10:13:04;;;;;;;26.80;19.27;;;;;;;;;;5587327;31;34611;-72
2023/12/01 10:16:07;;;;;;;28.85;19.60;;;;;;;;;;5587424;31;34275;-71
2023/12/01 10:19:10;;;;;;;27.98;18.62;;;;;;;;;;5587062;31;34227;-72
2023/12/01 10:22:19;;;;;;;26.17;19.75;;;;;;;;;;5587012;31;34514;-72
2023/12/01 10:25:22;;;;;;;31.00;21.15;;;;;;;;;;5586613;31;34685;-71
2023/12/01 10:28:43;;;;;;;31.62;21.83;;;;;;;;;;5588299;31;35424;-72
2023/12/01 10:31:47;;;;;;;33.45;21.17;;;;;;;;;;5589895;31;34349;-71
2023/12/01 10:34:52;;;;;;;31.50;20.92;;;;;;;;;;5590170;31;34256;-71
2023/12/01 10:37:57;;;;;;;28.48;18.62;;;;;;;;;;5589227;31;34311;-71
2023/12/01 10:41:03;;;;;;;32.92;21.10;;;;;;;;;;5589692;31;33395;-73
2023/12/01 10:44:06;;;;;;;31.27;20.85;;;;;;;;;;5589904;31;35107;-73
2023/12/01 10:47:10;;;;;;;32.05;20.55;;;;;;;;;;5589501;31;35130;-72
2023/12/01 10:50:16;;;;;;;33.17;20.30;;;;;;;;;;5589524;31;35237;-73
2023/12/01 10:53:22;;;;;;;26.62;17.98;;;;;;;;;;5591994;31;34836;-72
2023/12/01 10:56:24;;;;;;;32.30;20.60;;;;;;;;;;5595506;31;34404;-72
2023/12/01 10:59:28;;;;;;;35.42;22.20;;;;;;;;;;5590235;31;35339;-72
2023/12/01 11:02:31;;;;;;;29.27;20.05;;;;;;;;;;5589771;31;33884;-73
2023/12/01 11:05:34;;;;;;;37.80;24.25;;;;;;;;;;5589486;31;35062;-72
2023/12/01 11:08:44;;;;;;;34.45;23.70;;;;;;;;;;5589491;31;34570;-73
2023/12/01 11:11:47;;;;;;;;;;;;;;;;;;5589581;31;34572;-73
2023/12/01 11:14:51;;;;;;;28.23;20.73;;;;;;;;;;5589504;31;35092;-73
2023/12/01 11:17:55;;;;;;;30.85;20.95;;;;;;;;;;5589507;31;34391;-75
2023/12/01 11:21:05;;;;;;;26.42;19.25;;;;;;;;;;5589130;31;34279;-74
2023/12/01 11:24:24;;;;;;;27.00;19.55;;;;;;;;;;5588800;31;34502;-74
2023/12/01 11:27:28;;;;;;;28.92;19.17;;;;;;;;;;5589227;31;34505;-74
2023/12/01 11:30:51;;;;;;;26.77;19.62;;;;;;;;;;5589151;31;34676;-73
2023/12/01 11:33:57;;;;;;;23.27;18.42;;;;;;;;;;5589579;31;34324;-73
2023/12/01 11:37:05;;;;;;;23.70;18.20;;;;;;;;;;5588859;31;34565;-74
2023/12/01 11:40:22;;;;;;;24.05;17.42;;;;;;;;;;5587937;31;35087;-73
2023/12/01 11:43:27;;;;;;;28.42;19.50;;;;;;;;;;5588758;31;34751;-73
2023/12/01 11:46:41;;;;;;;26.70;18.98;;;;;;;;;;5588266;31;34352;-74
2023/12/01 11:49:46;;;;;;;27.10;19.40;;;;;;;;;;5588618;31;35118;-73
2023/12/01 11:52:49;;;;;;;23.52;17.42;;;;;;;;;;5588867;31;34292;-73
2023/12/01 11:55:53;;;;;;;25.00;17.98;;;;;;;;;;5588945;31;34384;-73
2023/12/01 11:58:55;;;;;;;24.70;18.20;;;;;;;;;;5588741;31;34797;-73
2023/12/01 12:01:58;;;;;;;26.12;18.25;;;;;;;;;;5587676;31;34757;-73
2023/12/01 12:05:05;;;;;;;24.63;18.00;;;;;;;;;;5590237;31;35019;-74
2023/12/01 12:08:09;;;;;;;22.13;16.45;;;;;;;;;;5589274;31;35162;-74
2023/12/01 12:11:12;;;;;;;26.27;18.50;;;;;;;;;;5588760;31;34230;-73
2023/12/01 12:14:15;;;;;;;22.33;16.75;;;;;;;;;;5588012;31;35140;-73
2023/12/01 12:17:21;;;;;;;24.40;17.90;;;;;;;;;;5588623;31;35151;-73
2023/12/01 12:20:23;;;;;;;22.37;17.42;;;;;;;;;;5588169;31;34509;-74
2023/12/01 12:23:27;;;;;;;23.92;17.90;;;;;;;;;;5588681;31;34372;-74
2023/12/01 12:26:30;;;;;;;24.92;19.67;;;;;;;;;;5588465;31;35079;-73
2023/12/01 12:29:34;;;;;;;31.08;20.10;;;;;;;;;;5588592;31;34396;-73
2023/12/01 12:32:37;;;;;;;26.62;18.95;;;;;;;;;;5588843;31;35391;-74
2023/12/01 12:35:40;;;;;;;24.67;19.05;;;;;;;;;;5589073;31;34184;-74
2023/12/01 12:38:48;;;;;;;26.08;19.15;;;;;;;;;;5587848;31;34314;-73
2023/12/01 12:41:59;;;;;;;21.77;17.27;;;;;;;;;;5588901;31;35135;-73
2023/12/01 12:45:04;;;;;;;25.33;18.70;;;;;;;;;;5588556;31;34527;-73
2023/12/01 12:48:09;;;;;;;24.05;17.45;;;;;;;;;;5588263;31;35118;-73
2023/12/01 12:51:17;;;;;;;23.83;16.83;;;;;;;;;;5587884;31;35073;-73
2023/12/01 12:54:20;;;;;;;21.73;15.77;;;;;;;;;;5588960;31;34271;-73
2023/12/01 12:57:23;;;;;;;18.30;14.70;;;;;;;;;;5588439;31;34356;-73
2023/12/01 13:00:26;;;;;;;22.40;16.17;;;;;;;;;;5588292;31;34408;-74
2023/12/01 13:03:29;;;;;;;23.38;16.67;;;;;;;;;;5588317;31;34636;-73
2023/12/01 13:06:33;;;;;;;27.50;17.05;;;;;;;;;;5587618;31;35044;-73
2023/12/01 13:09:49;;;;;;;23.58;16.05;;;;;;;;;;5588348;31;34215;-73
2023/12/01 13:12:52;;;;;;;25.98;17.75;;;;;;;;;;5587629;31;34994;-74
2023/12/01 13:15:55;;;;;;;20.65;16.15;;;;;;;;;;5588391;31;34319;-74
2023/12/01 13:18:58;;;;;;;22.13;16.17;;;;;;;;;;5588147;31;35052;-73
2023/12/01 13:22:01;;;;;;;19.35;14.95;;;;;;;;;;5588281;31;34926;-74
2023/12/01 13:25:04;;;;;;;20.77;15.57;;;;;;;;;;5588215;31;35049;-74
2023/12/01 13:28:07;;;;;;;23.98;18.37;;;;;;;;;;5588074;31;34635;-74
2023/12/01 13:31:09;;;;;;;19.33;14.13;;;;;;;;;;5588087;31;34339;-74
2023/12/01 13:34:12;;;;;;;17.80;14.68;;;;;;;;;;5587263;31;35230;-74
2023/12/01 13:37:15;;;;;;;21.30;15.95;;;;;;;;;;5587294;31;35045;-74
2023/12/01 13:40:18;;;;;;;22.83;17.50;;;;;;;;;;5588033;31;35088;-74
2023/12/01 13:43:21;;;;;;;21.50;16.62;;;;;;;;;;5588005;31;35079;-74
2023/12/01 13:46:24;;;;;;;19.98;15.75;;;;;;;;;;5587775;31;35045;-75
2023/12/01 13:49:27;;;;;;;20.17;16.65;;;;;;;;;;5587843;31;34597;-74
2023/12/01 13:52:30;;;;;;;19.95;15.07;;;;;;;;;;5587748;31;35073;-73
2023/12/01 13:55:33;;;;;;;15.68;12.77;;;;;;;;;;5587884;31;35200;-74
2023/12/01 13:58:38;;;;;;;16.50;13.13;;;;;;;;;;5587686;31;34623;-74
2023/12/01 14:01:40;;;;;;;15.35;12.73;;;;;;;;;;5587776;31;35150;-74
2023/12/01 14:04:44;;;;;;;17.10;13.32;;;;;;;;;;5589520;31;34725;-75
2023/12/01 14:07:49;;;;;;;17.87;13.68;;;;;;;;;;5590129;31;34459;-74
2023/12/01 14:10:52;;;;;;;16.50;12.70;;;;;;;;;;5589286;31;35077;-74
2023/12/01 14:13:54;;;;;;;14.95;11.93;;;;;;;;;;5589753;31;35012;-74
2023/12/01 14:16:57;;;;;;;14.85;10.82;;;;;;;;;;5588786;31;35052;-74
2023/12/01 14:19:59;;;;;;;13.70;11.02;;;;;;;;;;5589807;31;35062;-74
2023/12/01 14:23:02;;;;;;;13.82;11.10;;;;;;;;;;5590260;31;35072;-74
2023/12/01 14:26:06;;;;;;;13.90;11.35;;;;;;;;;;5590138;31;34164;-74
2023/12/01 14:29:09;;;;;;;13.13;10.75;;;;;;;;;;5589384;31;34480;-74
2023/12/01 14:32:11;;;;;;;13.38;10.85;;;;;;;;;;5590241;31;34300;-74
2023/12/01 14:35:22;;;;;;;13.10;10.82;;;;;;;;;;5589302;31;34693;-74
2023/12/01 14:38:25;;;;;;;13.57;10.73;;;;;;;;;;5589880;31;34195;-75
2023/12/01 14:41:28;;;;;;;13.55;10.73;;;;;;;;;;5589526;31;35268;-75
2023/12/01 14:44:30;;;;;;;11.15;9.52;;;;;;;;;;5589283;31;35077;-75
2023/12/01 14:47:34;;;;;;;13.70;10.43;;;;;;;;;;5588552;31;35097;-75
2023/12/01 14:50:36;;;;;;;14.27;11.07;;;;;;;;;;5588603;31;35065;-74
2023/12/01 14:53:39;;;;;;;14.27;11.20;;;;;;;;;;5589486;31;34392;-76
2023/12/01 14:56:44;;;;;;;16.37;11.88;;;;;;;;;;5589816;31;34274;-74
2023/12/01 14:59:47;;;;;;;14.48;11.40;;;;;;;;;;5588672;31;34295;-74
2023/12/01 15:02:50;;;;;;;15.18;12.15;;;;;;;;;;5589292;31;35005;-74
2023/12/01 15:05:53;;;;;;;15.98;12.52;;;;;;;;;;5588517;31;34065;-75
2023/12/01 15:08:55;;;;;;;18.83;12.88;;;;;;;;;;5589687;31;35117;-75
2023/12/01 15:11:58;;;;;;;16.67;12.82;;;;;;;;;;5588959;31;35061;-74
2023/12/01 15:15:01;;;;;;;16.30;12.40;;;;;;;;;;5589326;31;34588;-75
2023/12/01 15:18:04;;;;;;;14.70;12.35;;;;;;;;;;5588576;31;35099;-73
2023/12/01 15:21:07;;;;;;;14.18;11.18;;;;;;;;;;5589040;31;34570;-74
2023/12/01 15:24:10;;;;;;;21.58;14.20;;;;;;;;;;5589116;31;35126;-74
2023/12/01 15:27:13;;;;;;;16.73;12.20;;;;;;;;;;5589220;31;34937;-73
2023/12/01 15:30:16;;;;;;;14.57;11.90;;;;;;;;;;5589555;31;34119;-73
2023/12/01 15:33:19;;;;;;;17.80;14.30;;;;;;;;;;5589042;31;34395;-74
2023/12/01 15:36:22;;;;;;;15.10;12.27;;;;;;;;;;5588476;31;34737;-73
2023/12/01 15:39:24;;;;;;;17.33;12.60;;;;;;;;;;5588830;31;33561;-74
2023/12/01 15:42:28;;;;;;;19.17;15.55;;;;;;;;;;5589093;31;34263;-73
2023/12/01 15:45:30;;;;;;;13.43;11.52;;;;;;;;;;5588164;31;34177;-74
2023/12/01 15:48:33;;;;;;;14.87;12.55;;;;;;;;;;5588788;31;35116;-74
2023/12/01 15:51:36;;;;;;;17.83;12.27;;;;;;;;;;5589331;31;34313;-74
2023/12/01 15:54:39;;;;;;;16.62;13.52;;;;;;;;;;5588823;31;34490;-74
2023/12/01 15:57:45;;;;;;;17.48;14.80;;;;;;;;;;5588275;31;35014;-74
2023/12/01 16:00:48;;;;;;;17.67;13.82;;;;;;;;;;5588282;31;35226;-74
2023/12/01 16:03:51;;;;;;;19.80;15.00;;;;;;;;;;5588830;31;34390;-75
2023/12/01 16:06:53;;;;;;;15.30;13.40;;;;;;;;;;5588564;31;34422;-75
2023/12/01 16:09:56;;;;;;;15.75;12.52;;;;;;;;;;5588483;31;34319;-75
2023/12/01 16:12:59;;;;;;;15.07;11.88;;;;;;;;;;5588713;31;34441;-73
2023/12/01 16:16:01;;;;;;;14.52;12.52;;;;;;;;;;5588726;31;35143;-74
2023/12/01 16:19:04;;;;;;;13.07;11.50;;;;;;;;;;5588635;31;35014;-75
2023/12/01 16:22:06;;;;;;;13.88;12.00;;;;;;;;;;5588107;31;34432;-76
2023/12/01 16:25:09;;;;;;;19.95;13.00;;;;;;;;;;5587868;31;35043;-75
2023/12/01 16:28:11;;;;;;;16.40;13.15;;;;;;;;;;5588454;31;35089;-77
2023/12/01 16:31:14;;;;;;;14.35;12.52;;;;;;;;;;5588587;31;35040;-75
2023/12/01 16:34:17;;;;;;;15.52;13.10;;;;;;;;;;5588518;31;34575;-75
2023/12/01 16:37:20;;;;;;;16.15;13.35;;;;;;;;;;5588550;31;34528;-75
2023/12/01 16:40:23;;;;;;;15.93;13.27;;;;;;;;;;5588863;31;34202;-74
2023/12/01 16:43:25;;;;;;;16.85;14.68;;;;;;;;;;5588683;31;34271;-74
2023/12/01 16:46:28;;;;;;;17.90;14.65;;;;;;;;;;5588749;31;34143;-75
2023/12/01 16:49:30;;;;;;;15.27;12.82;;;;;;;;;;5588251;31;35181;-75
2023/12/01 16:52:33;;;;;;;14.63;12.65;;;;;;;;;;5587966;31;35084;-74
2023/12/01 16:55:36;;;;;;;16.15;12.88;;;;;;;;;;5588698;31;34398;-74
2023/12/01 16:58:38;;;;;;;16.55;13.90;;;;;;;;;;5588647;31;34373;-74
2023/12/01 17:01:41;;;;;;;16.12;13.00;;;;;;;;;;5588686;31;34317;-74
2023/12/01 17:04:44;;;;;;;18.23;13.77;;;;;;;;;;5588361;31;34463;-74
2023/12/01 17:07:47;;;;;;;17.52;13.13;;;;;;;;;;5587800;31;35284;-74
2023/12/01 17:10:50;;;;;;;15.45;12.73;;;;;;;;;;5588558;31;35111;-74
2023/12/01 17:13:52;;;;;;;16.02;13.02;;;;;;;;;;5587465;31;35071;-75
2023/12/01 17:16:55;;;;;;;17.95;13.80;;;;;;;;;;5588582;31;35043;-75
2023/12/01 17:19:57;;;;;;;15.35;12.55;;;;;;;;;;5587720;31;35094;-75
2023/12/01 17:23:00;;;;;;;16.40;13.38;;;;;;;;;;5588519;31;34517;-74
2023/12/01 17:26:03;;;;;;;17.25;14.10;;;;;;;;;;5588319;31;35060;-74
2023/12/01 17:29:05;;;;;;;17.50;14.13;;;;;;;;;;5587679;31;34561;-75
2023/12/01 17:32:19;;;;;;;19.45;15.68;;;;;;;;;;5588208;31;34540;-75
2023/12/01 17:35:22;;;;;;;20.08;17.08;;;;;;;;;;5588408;31;34430;-75
2023/12/01 17:38:25;;;;;;;17.27;14.43;;;;;;;;;;5588124;31;34706;-75
2023/12/01 17:41:29;;;;;;;17.25;14.07;;;;;;;;;;5588068;31;35106;-75
2023/12/01 17:44:32;;;;;;;15.98;13.70;;;;;;;;;;5588404;31;35251;-74
2023/12/01 17:47:35;;;;;;;16.15;14.25;;;;;;;;;;5588395;31;34387;-75
2023/12/01 17:50:37;;;;;;;16.50;14.18;;;;;;;;;;5588533;31;34563;-75